Time;durP1;ratioP1;P1;durP2;ratioP2;P2;SDS_P1;SDS_P2;PMS_P1;PMS_P2;Temp;Humidity;BMP_temperature;BMP_pressure;BME280_temperature;BME280_humidity;BME280_pressure;Samples;Min_cycle;Max_cycle;Signal;HPM_P1;HPM_P2
2022/05/17 00:00:41;;;;;;;8.70;4.57;;;18.60;99.90;;;;;;5060695;28;20032;-70
2022/05/17 00:03:07;;;;;;;9.18;4.70;;;18.60;99.90;;;;;;5060210;28;20106;-70
2022/05/17 00:05:33;;;;;;;8.70;4.53;;;18.50;99.90;;;;;;5062956;28;20017;-70
2022/05/17 00:07:59;;;;;;;6.35;4.85;;;18.50;99.90;;;;;;5061824;28;20029;-70
2022/05/17 00:10:25;;;;;;;7.40;4.30;;;18.50;99.90;;;;;;5059144;28;20055;-69
2022/05/17 00:12:51;;;;;;;5.75;4.30;;;18.40;99.90;;;;;;5060905;28;20041;-70
2022/05/17 00:15:18;;;;;;;9.07;4.45;;;18.40;99.90;;;;;;5062693;28;20027;-70
2022/05/17 00:17:44;;;;;;;6.95;3.83;;;18.40;99.90;;;;;;5060065;28;20044;-70
2022/05/17 00:20:11;;;;;;;8.52;3.85;;;18.40;99.90;;;;;;5059078;28;20027;-70
2022/05/17 00:22:38;;;;;;;8.60;4.30;;;18.40;99.90;;;;;;5062372;28;20427;-70
2022/05/17 00:25:04;;;;;;;8.63;4.50;;;18.40;99.90;;;;;;5061657;28;20054;-70
2022/05/17 00:27:29;;;;;;;7.80;4.50;;;18.40;99.90;;;;;;5064100;28;20024;-69
2022/05/17 00:29:55;;;;;;;6.70;4.28;;;18.30;99.90;;;;;;5076039;28;20028;-69
2022/05/17 00:32:21;;;;;;;7.93;4.35;;;18.30;99.90;;;;;;5062188;28;20021;-70
2022/05/17 00:34:46;;;;;;;6.75;4.38;;;18.30;99.90;;;;;;5061534;28;20067;-70
2022/05/17 00:37:13;;;;;;;7.10;4.40;;;18.30;99.90;;;;;;5060653;28;20091;-69
2022/05/17 00:39:39;;;;;;;6.68;3.95;;;18.30;99.90;;;;;;5075885;28;20067;-69
2022/05/17 00:42:06;;;;;;;9.60;4.03;;;18.20;99.90;;;;;;5060171;28;20071;-70
2022/05/17 00:44:43;;;;;;;8.35;4.30;;;18.20;99.90;;;;;;5059387;28;20151;-70
2022/05/17 00:47:12;;;;;;;8.00;4.40;;;18.20;99.90;;;;;;5061083;28;20059;-69
2022/05/17 00:49:42;;;;;;;8.35;4.45;;;18.20;99.90;;;;;;5059515;28;20025;-70
2022/05/17 00:52:31;;;;;;;7.22;3.78;;;18.10;99.90;;;;;;5059942;28;20017;-70
2022/05/17 00:55:07;;;;;;;5.03;3.88;;;18.10;99.90;;;;;;5059766;28;20024;-70
2022/05/17 00:57:46;;;;;;;10.63;4.03;;;18.10;99.90;;;;;;5062335;28;20028;-69
2022/05/17 01:00:15;;;;;;;7.70;4.10;;;18.10;99.90;;;;;;5069115;28;20031;-69
2022/05/17 01:02:48;;;;;;;8.25;4.15;;;18.00;99.90;;;;;;5060828;28;20075;-70
2022/05/17 01:05:14;;;;;;;;;;;18.00;99.90;;;;;;5066619;28;20421;-70
2022/05/17 01:07:46;;;;;;;9.32;4.13;;;18.00;99.90;;;;;;5071474;28;19904;-70
2022/05/17 01:10:12;;;;;;;7.68;4.22;;;18.00;99.90;;;;;;5065339;28;20028;-70
2022/05/17 01:12:39;;;;;;;9.50;3.90;;;17.90;99.90;;;;;;5052702;28;20029;-69
2022/05/17 01:15:07;;;;;;;6.80;4.47;;;17.80;99.90;;;;;;5052373;28;20481;-69
2022/05/17 01:17:36;;;;;;;7.50;4.00;;;17.80;99.90;;;;;;5065564;28;20067;-70
2022/05/17 01:20:05;;;;;;;7.97;4.32;;;17.80;99.90;;;;;;5065290;28;20629;-69
2022/05/17 01:22:31;;;;;;;8.88;4.45;;;17.80;99.90;;;;;;5052011;28;20107;-69
2022/05/17 01:24:56;;;;;;;8.30;4.57;;;17.80;99.90;;;;;;5052485;28;20029;-69
2022/05/17 01:27:32;;;;;;;8.63;4.45;;;17.70;99.90;;;;;;5065702;28;20024;-70
2022/05/17 01:29:58;;;;;;;10.90;4.30;;;17.70;99.90;;;;;;5070651;28;20118;-70
2022/05/17 01:32:23;;;;;;;13.10;5.10;;;17.70;99.90;;;;;;5072429;28;20067;-71
2022/05/17 01:34:49;;;;;;;7.45;4.50;;;17.60;99.90;;;;;;5071984;28;20456;-70
2022/05/17 01:37:15;;;;;;;8.23;4.18;;;17.60;99.90;;;;;;5072485;28;20032;-70
2022/05/17 01:39:42;;;;;;;7.72;4.70;;;17.60;99.90;;;;;;5072006;28;20055;-69
2022/05/17 01:42:10;;;;;;;7.15;4.32;;;17.60;99.90;;;;;;5072263;28;20024;-69
2022/05/17 01:44:37;;;;;;;9.80;4.60;;;17.60;99.90;;;;;;5071442;28;20117;-69
2022/05/17 01:47:03;;;;;;;9.75;4.50;;;17.50;99.90;;;;;;5071830;28;20082;-70
2022/05/17 01:49:28;;;;;;;9.18;4.03;;;17.50;99.90;;;;;;5069293;28;20417;-69
2022/05/17 01:51:54;;;;;;;7.13;4.18;;;17.50;99.90;;;;;;5072020;28;20032;-70
2022/05/17 01:54:20;;;;;;;9.45;4.75;;;17.50;99.90;;;;;;5053214;28;20040;-69
2022/05/17 01:56:45;;;;;;;8.05;5.05;;;17.50;99.90;;;;;;5053942;28;20485;-70
2022/05/17 01:59:12;;;;;;;8.70;4.90;;;17.50;99.90;;;;;;5070452;28;20051;-70
2022/05/17 02:01:38;;;;;;;7.28;4.10;;;17.50;99.90;;;;;;5062734;28;20028;-69
2022/05/17 02:04:04;;;;;;;11.10;4.53;;;17.50;99.90;;;;;;5071626;28;20019;-70
2022/05/17 02:06:30;;;;;;;6.72;5.05;;;17.50;99.90;;;;;;5070809;28;20028;-69
2022/05/17 02:08:55;;;;;;;4.82;4.20;;;17.50;99.90;;;;;;5071544;28;20179;-70
2022/05/17 02:11:21;;;;;;;6.18;4.10;;;17.50;99.90;;;;;;5071569;28;20437;-70
2022/05/17 02:13:46;;;;;;;6.93;3.80;;;17.50;99.90;;;;;;5071968;28;20090;-69
2022/05/17 02:16:13;;;;;;;4.25;3.75;;;17.50;99.90;;;;;;5074542;28;20491;-70
2022/05/17 02:18:39;;;;;;;6.70;4.18;;;17.50;99.90;;;;;;5074436;28;20025;-69
2022/05/17 02:21:04;;;;;;;5.63;4.45;;;17.60;99.90;;;;;;5061566;28;20025;-69
2022/05/17 02:23:31;;;;;;;9.32;4.90;;;17.60;99.90;;;;;;5055908;28;20046;-70
2022/05/17 02:25:56;;;;;;;9.10;4.30;;;17.50;99.90;;;;;;5056567;28;20025;-70
2022/05/17 02:28:22;;;;;;;12.90;5.25;;;17.50;99.90;;;;;;5074933;28;20423;-70
2022/05/17 02:30:48;;;;;;;7.28;4.10;;;17.50;99.90;;;;;;5055216;28;20041;-70
2022/05/17 02:33:14;;;;;;;8.77;3.67;;;17.50;99.90;;;;;;5058335;28;20449;-70
2022/05/17 02:35:40;;;;;;;6.32;3.70;;;17.50;99.90;;;;;;5075089;28;20129;-69
2022/05/17 02:38:07;;;;;;;6.05;3.75;;;17.50;99.90;;;;;;5074003;28;20039;-70
2022/05/17 02:40:33;;;;;;;4.93;4.13;;;17.50;99.90;;;;;;5090522;28;20590;-70
2022/05/17 02:42:59;;;;;;;5.07;3.40;;;17.40;99.90;;;;;;5075166;28;20028;-70
2022/05/17 02:45:25;;;;;;;7.50;4.20;;;17.50;99.90;;;;;;5075283;28;20039;-70
2022/05/17 02:47:52;;;;;;;6.00;4.05;;;17.50;99.90;;;;;;5074630;28;20017;-70
2022/05/17 02:50:18;;;;;;;8.35;4.28;;;17.50;99.90;;;;;;5074494;28;20024;-70
2022/05/17 02:52:44;;;;;;;8.20;4.20;;;17.40;99.90;;;;;;5073859;28;20108;-70
2022/05/17 02:55:10;;;;;;;7.57;4.05;;;17.40;99.90;;;;;;5075009;28;20104;-70
2022/05/17 02:57:35;;;;;;;7.75;4.50;;;17.40;99.90;;;;;;5074754;28;20040;-69
2022/05/17 03:00:02;;;;;;;4.85;3.65;;;17.40;99.90;;;;;;5074434;28;20036;-69
2022/05/17 03:02:28;;;;;;;5.50;3.90;;;17.40;99.90;;;;;;5074427;28;20040;-69
2022/05/17 03:04:53;;;;;;;4.68;3.13;;;17.40;99.90;;;;;;5069515;28;20021;-69
2022/05/17 03:07:19;;;;;;;6.40;3.75;;;17.40;99.90;;;;;;5064771;28;20459;-69
2022/05/17 03:09:44;;;;;;;8.88;3.80;;;17.40;99.90;;;;;;5074098;28;20017;-69
2022/05/17 03:12:10;;;;;;;8.40;4.18;;;17.50;99.90;;;;;;5074436;28;20032;-70
2022/05/17 03:14:36;;;;;;;7.60;3.80;;;17.50;99.90;;;;;;5073861;28;20052;-70
2022/05/17 03:17:13;;;;;;;5.68;4.63;;;17.50;99.90;;;;;;5073849;28;20044;-69
2022/05/17 03:19:39;;;;;;;5.50;4.53;;;17.50;99.90;;;;;;5074192;28;20469;-69
2022/05/17 03:22:05;;;;;;;6.95;4.53;;;17.40;99.90;;;;;;5072944;28;20033;-70
2022/05/17 03:24:31;;;;;;;6.13;4.18;;;17.40;99.90;;;;;;5074273;28;20423;-70
2022/05/17 03:26:57;;;;;;;6.75;3.55;;;17.40;99.90;;;;;;5071851;28;20025;-70
2022/05/17 03:29:23;;;;;;;6.07;3.88;;;17.40;99.90;;;;;;5073689;28;20028;-70
2022/05/17 03:31:49;;;;;;;9.13;4.15;;;17.30;99.90;;;;;;5073910;28;20037;-70
2022/05/17 03:34:14;;;;;;;6.40;4.05;;;17.20;99.90;;;;;;5073977;28;20032;-70
2022/05/17 03:36:40;;;;;;;7.30;4.55;;;17.20;99.90;;;;;;5066345;28;20065;-69
2022/05/17 03:39:06;;;;;;;6.78;4.22;;;17.30;99.90;;;;;;5056881;28;20039;-70
2022/05/17 03:41:31;;;;;;;8.10;3.55;;;17.30;99.90;;;;;;5074245;28;20373;-70
2022/05/17 03:43:57;;;;;;;7.72;4.72;;;17.40;99.90;;;;;;5073353;28;20032;-70
2022/05/17 03:46:22;;;;;;;9.80;4.85;;;17.40;99.90;;;;;;5072883;28;20071;-69
2022/05/17 03:48:48;;;;;;;8.35;4.10;;;17.30;99.90;;;;;;5052839;28;20035;-69
2022/05/17 03:51:16;;;;;;;4.18;3.78;;;17.10;99.90;;;;;;5061658;28;20082;-69
2022/05/17 03:53:43;;;;;;;4.82;3.65;;;17.20;99.90;;;;;;5071972;28;20499;-69
2022/05/17 03:56:09;;;;;;;7.50;4.00;;;17.20;99.90;;;;;;5073598;28;20462;-70
2022/05/17 03:58:35;;;;;;;7.53;4.03;;;17.20;99.90;;;;;;5072211;28;20676;-70
2022/05/17 04:01:01;;;;;;;6.20;4.30;;;17.10;99.90;;;;;;5072387;28;20024;-69
2022/05/17 04:03:26;;;;;;;8.80;4.15;;;17.20;99.90;;;;;;5072618;28;20078;-70
2022/05/17 04:05:52;;;;;;;7.68;4.00;;;17.20;99.90;;;;;;5073218;28;20021;-69
2022/05/17 04:08:17;;;;;;;6.40;4.07;;;17.10;99.90;;;;;;5072048;28;20046;-70
2022/05/17 04:10:43;;;;;;;9.45;4.32;;;17.10;99.90;;;;;;5072797;28;20043;-70
2022/05/17 04:13:09;;;;;;;8.10;4.43;;;17.10;99.90;;;;;;5072831;28;20025;-70
2022/05/17 04:15:34;;;;;;;8.25;4.72;;;17.10;99.90;;;;;;5072413;28;20427;-70
2022/05/17 04:18:00;;;;;;;8.30;4.05;;;17.10;99.90;;;;;;5052804;28;20037;-70
2022/05/17 04:20:26;;;;;;;8.02;4.28;;;17.10;99.90;;;;;;5052929;28;20025;-70
2022/05/17 04:22:53;;;;;;;9.38;4.63;;;17.10;99.90;;;;;;5072918;28;20158;-70
2022/05/17 04:25:22;;;;;;;9.43;5.00;;;17.10;99.90;;;;;;5073222;28;20472;-68
2022/05/17 04:27:49;;;;;;;8.50;4.45;;;16.90;99.90;;;;;;5072537;28;20024;-70
2022/05/17 04:30:15;;;;;;;8.43;4.72;;;16.80;99.90;;;;;;5073016;28;20026;-70
2022/05/17 04:32:42;;;;;;;9.02;4.90;;;16.70;99.90;;;;;;5071758;28;20016;-70
2022/05/17 04:35:08;;;;;;;12.05;4.63;;;16.60;99.90;;;;;;5072234;28;20392;-70
2022/05/17 04:37:34;;;;;;;6.57;4.32;;;16.70;99.90;;;;;;5070899;28;20582;-70
2022/05/17 04:40:00;;;;;;;5.72;4.80;;;16.80;99.90;;;;;;5072181;28;20025;-70
2022/05/17 04:42:26;;;;;;;10.93;5.20;;;16.90;99.90;;;;;;5072433;28;20035;-70
2022/05/17 04:44:51;;;;;;;6.82;5.32;;;16.90;99.90;;;;;;5073066;28;20020;-70
2022/05/17 04:47:17;;;;;;;9.95;5.20;;;17.00;99.90;;;;;;5071664;28;20099;-70
2022/05/17 04:49:42;;;;;;;6.80;4.95;;;17.00;99.90;;;;;;5072083;28;20099;-70
2022/05/17 04:52:08;;;;;;;7.97;5.47;;;17.10;99.90;;;;;;5070562;28;20071;-70
2022/05/17 04:54:34;;;;;;;7.32;4.65;;;17.10;99.90;;;;;;5072425;28;20023;-70
2022/05/17 04:56:59;;;;;;;15.27;6.25;;;17.20;99.90;;;;;;5072105;28;20090;-70
2022/05/17 04:59:25;;;;;;;9.60;4.68;;;17.20;99.90;;;;;;5072366;28;20029;-70
2022/05/17 05:01:51;;;;;;;7.47;4.38;;;17.20;99.90;;;;;;5072532;28;20095;-70
2022/05/17 05:04:19;;;;;;;5.80;4.22;;;17.20;99.90;;;;;;5073098;28;20016;-71
2022/05/17 05:06:45;;;;;;;8.40;4.78;;;17.30;99.90;;;;;;5066900;28;20032;-70
2022/05/17 05:09:11;;;;;;;8.95;4.40;;;17.30;99.90;;;;;;5056596;28;20024;-70
2022/05/17 05:11:37;;;;;;;7.82;4.88;;;17.40;99.90;;;;;;5071405;28;20068;-70
2022/05/17 05:14:03;;;;;;;4.88;4.38;;;17.50;99.90;;;;;;5071438;28;20103;-69
2022/05/17 05:16:28;;;;;;;9.93;4.43;;;17.40;99.90;;;;;;5066296;28;20029;-69
2022/05/17 05:18:54;;;;;;;7.95;4.40;;;17.50;99.90;;;;;;5062472;28;20389;-67
2022/05/17 05:21:20;;;;;;;5.60;4.00;;;17.50;99.90;;;;;;5059933;28;20092;-68
2022/05/17 05:23:46;;;;;;;7.55;3.65;;;17.50;99.90;;;;;;5067226;28;20024;-68
2022/05/17 05:26:13;;;;;;;6.72;3.88;;;17.40;99.90;;;;;;5070974;28;20461;-68
2022/05/17 05:28:40;;;;;;;4.68;3.63;;;17.50;99.90;;;;;;5071580;28;20040;-68
2022/05/17 05:31:06;;;;;;;6.65;3.72;;;17.60;99.90;;;;;;5067702;28;20486;-68
2022/05/17 05:33:34;;;;;;;10.43;5.18;;;17.60;99.90;;;;;;5072425;28;20021;-68
2022/05/17 05:36:00;;;;;;;7.00;4.25;;;17.70;99.90;;;;;;5072038;28;20021;-67
2022/05/17 05:38:27;;;;;;;10.30;4.72;;;17.70;99.90;;;;;;5071734;28;20025;-68
2022/05/17 05:40:52;;;;;;;8.52;4.13;;;17.50;99.90;;;;;;5087665;28;20028;-67
2022/05/17 05:43:18;;;;;;;10.63;4.18;;;17.60;99.90;;;;;;5072226;28;20025;-67
2022/05/17 05:45:44;;;;;;;7.93;4.22;;;17.60;99.90;;;;;;5057148;28;20032;-67
2022/05/17 05:48:10;;;;;;;9.40;4.45;;;17.70;99.90;;;;;;5063848;28;20029;-67
2022/05/17 05:50:38;;;;;;;7.03;4.50;;;17.80;99.90;;;;;;5068645;28;20074;-67
2022/05/17 05:53:13;;;;;;;8.13;5.30;;;17.90;99.90;;;;;;5054693;28;20074;-68
2022/05/17 05:55:40;;;;;;;7.13;4.70;;;18.00;99.90;;;;;;5054719;28;20353;-67
2022/05/17 05:58:07;;;;;;;6.30;4.28;;;18.00;99.90;;;;;;5071494;28;20081;-67
2022/05/17 06:00:34;;;;;;;5.22;4.20;;;18.00;99.90;;;;;;5071137;28;20024;-68
2022/05/17 06:03:00;;;;;;;7.22;4.28;;;18.00;99.90;;;;;;5055260;28;20591;-68
2022/05/17 06:05:26;;;;;;;6.18;4.25;;;18.10;99.90;;;;;;5055883;28;20104;-66
2022/05/17 06:07:52;;;;;;;7.82;4.70;;;18.10;99.90;;;;;;5074909;28;20362;-67
2022/05/17 06:10:20;;;;;;;5.60;3.85;;;18.00;99.90;;;;;;5074863;28;20443;-68
2022/05/17 06:12:45;;;;;;;9.02;4.10;;;18.00;99.90;;;;;;5075685;28;20041;-67
2022/05/17 06:15:11;;;;;;;10.75;5.25;;;18.00;99.90;;;;;;5075438;28;20492;-68
2022/05/17 06:17:38;;;;;;;10.25;5.10;;;18.10;99.90;;;;;;5075089;28;20041;-67
2022/05/17 06:20:06;;;;;;;15.60;6.47;;;18.20;99.90;;;;;;5074986;28;20021;-68
2022/05/17 06:22:32;;;;;;;7.88;5.45;;;18.20;99.90;;;;;;5069323;28;20461;-68
2022/05/17 06:24:58;;;;;;;9.75;5.68;;;18.20;99.90;;;;;;5074334;28;20489;-67
2022/05/17 06:27:24;;;;;;;8.57;5.18;;;18.20;99.90;;;;;;5074047;28;20059;-67
2022/05/17 06:29:50;;;;;;;7.55;5.55;;;18.30;99.90;;;;;;5074321;28;20153;-67
2022/05/17 06:32:15;;;;;;;10.48;6.13;;;18.40;99.90;;;;;;5074876;28;20052;-68
2022/05/17 06:34:43;;;;;;;9.98;6.53;;;18.40;99.90;;;;;;5073398;28;20021;-67
2022/05/17 06:37:09;;;;;;;10.07;6.43;;;18.40;99.90;;;;;;5054205;28;20033;-68
2022/05/17 06:39:36;;;;;;;12.93;6.15;;;18.50;99.90;;;;;;5069068;28;20017;-67
2022/05/17 06:42:02;;;;;;;18.73;7.05;;;18.60;99.90;;;;;;5069168;28;20025;-67
2022/05/17 06:44:29;;;;;;;15.10;6.88;;;18.60;99.90;;;;;;5070292;28;20103;-67
2022/05/17 06:46:56;;;;;;;9.27;7.03;;;18.60;99.90;;;;;;5075045;28;20400;-67
2022/05/17 06:49:22;;;;;;;11.55;7.13;;;18.60;99.90;;;;;;5074975;28;20020;-67
2022/05/17 06:51:48;;;;;;;13.38;6.22;;;18.60;99.90;;;;;;5074915;28;20028;-68
2022/05/17 06:54:14;;;;;;;12.35;6.90;;;18.60;99.90;;;;;;5074306;28;20021;-68
2022/05/17 06:56:40;;;;;;;11.80;7.78;;;18.70;99.90;;;;;;5054372;28;20039;-68
2022/05/17 06:59:07;;;;;;;13.30;7.15;;;18.80;99.90;;;;;;5063362;28;20389;-67
2022/05/17 07:01:33;;;;;;;13.35;7.15;;;18.80;99.90;;;;;;5073434;28;20450;-67
2022/05/17 07:03:59;;;;;;;11.48;7.15;;;18.80;99.90;;;;;;5075072;28;20375;-67
2022/05/17 07:06:25;;;;;;;8.32;6.50;;;18.80;99.90;;;;;;5073951;28;20096;-68
2022/05/17 07:08:51;;;;;;;12.13;7.18;;;18.70;99.90;;;;;;5073306;28;20027;-68
2022/05/17 07:14:00;;;;;;;10.43;5.40;;;18.80;99.90;;;;;;5061234;28;20110;-68
2022/05/17 07:16:26;;;;;;;8.70;5.57;;;18.80;99.90;;;;;;5054641;28;20069;-68
2022/05/17 07:18:52;;;;;;;8.80;5.60;;;18.80;99.90;;;;;;5073803;28;20052;-67
2022/05/17 07:21:17;;;;;;;14.52;5.70;;;18.80;99.90;;;;;;5073243;28;20017;-67
2022/05/17 07:23:43;;;;;;;8.20;5.57;;;18.80;99.90;;;;;;5075040;28;20466;-67
2022/05/17 07:26:11;;;;;;;10.52;5.43;;;18.80;99.90;;;;;;5056086;28;20103;-67
2022/05/17 07:28:42;;;;;;;16.48;5.90;;;18.80;99.90;;;;;;5054431;28;20036;-68
2022/05/17 07:31:08;;;;;;;10.35;6.03;;;18.90;99.90;;;;;;5053542;28;20052;-67
2022/05/17 07:33:34;;;;;;;12.70;6.47;;;18.80;99.90;;;;;;5070083;28;20051;-68
2022/05/17 07:36:00;;;;;;;12.15;6.00;;;18.90;99.90;;;;;;5073201;28;20021;-68
2022/05/17 07:38:27;;;;;;;18.95;6.57;;;18.90;99.90;;;;;;5068572;28;20082;-68
2022/05/17 07:40:53;;;;;;;13.38;6.15;;;18.90;99.90;;;;;;5082403;28;20024;-68
2022/05/17 07:43:19;;;;;;;13.23;6.57;;;19.00;99.90;;;;;;5093786;28;20410;-67
2022/05/17 07:45:47;;;;;;;12.27;6.40;;;19.00;99.90;;;;;;5093687;28;20423;-67
2022/05/17 07:48:13;;;;;;;14.23;6.20;;;19.00;99.90;;;;;;5073885;28;20023;-68
2022/05/17 07:50:39;;;;;;;12.77;6.72;;;19.00;99.90;;;;;;5058007;28;20029;-68
2022/05/17 07:53:07;;;;;;;13.65;6.68;;;19.00;99.90;;;;;;5054068;28;20437;-68
2022/05/17 07:55:35;;;;;;;6.53;5.03;;;19.10;99.90;;;;;;5053515;28;20478;-67
2022/05/17 07:58:02;;;;;;;15.00;6.20;;;19.10;99.90;;;;;;5053335;28;20028;-68
2022/05/17 08:00:27;;;;;;;10.00;6.45;;;19.10;99.90;;;;;;5070381;28;20024;-68
2022/05/17 08:02:55;;;;;;;10.98;7.28;;;19.10;99.90;;;;;;5081754;28;20027;-68
2022/05/17 08:05:21;;;;;;;12.35;7.00;;;19.10;99.90;;;;;;5054161;28;20020;-68
2022/05/17 08:07:48;;;;;;;11.43;7.20;;;19.20;99.90;;;;;;5057076;28;20044;-68
2022/05/17 08:10:14;;;;;;;12.48;6.50;;;19.20;99.90;;;;;;5067858;28;20017;-68
2022/05/17 08:12:39;;;;;;;14.63;6.90;;;19.30;99.90;;;;;;5065441;28;20043;-68
2022/05/17 08:15:06;;;;;;;14.95;7.05;;;19.30;99.90;;;;;;5075262;28;20044;-68
2022/05/17 08:17:32;;;;;;;15.02;6.88;;;19.30;99.90;;;;;;5076277;28;20154;-68
2022/05/17 08:19:57;;;;;;;12.93;7.28;;;19.30;99.90;;;;;;5064078;28;20119;-68
2022/05/17 08:22:23;;;;;;;18.95;7.90;;;19.40;99.90;;;;;;5077008;28;20013;-68
2022/05/17 08:27:36;;;;;;;17.38;8.00;;;19.40;99.90;;;;;;5084071;28;20285;-68
2022/05/17 08:30:10;;;;;;;14.40;7.47;;;19.50;99.90;;;;;;5072737;28;20047;-68
2022/05/17 08:35:39;;;;;;;12.00;8.50;;;19.60;99.90;;;;;;5051499;28;20025;-68
2022/05/17 08:38:05;;;;;;;13.23;8.57;;;19.60;99.90;;;;;;5059401;28;20064;-68
2022/05/17 08:40:32;;;;;;;12.00;7.03;;;19.60;99.90;;;;;;5071361;28;20072;-68
2022/05/17 08:43:20;;;;;;;16.13;7.55;;;19.70;99.90;;;;;;5083872;28;20373;-68
2022/05/17 08:46:10;;;;;;;12.77;6.15;;;19.70;99.90;;;;;;5075201;28;20615;-68
2022/05/17 08:48:45;;;;;;;11.80;6.38;;;19.70;99.90;;;;;;5088297;28;20042;-68
2022/05/17 08:51:17;;;;;;;12.27;6.93;;;19.80;99.90;;;;;;5090199;28;20472;-68
2022/05/17 08:53:45;;;;;;;12.70;7.40;;;19.90;99.90;;;;;;5079037;28;20111;-68
2022/05/17 08:56:13;;;;;;;12.50;6.50;;;19.90;99.90;;;;;;5086417;28;20017;-68
2022/05/17 08:58:40;;;;;;;19.15;8.50;;;20.10;99.90;;;;;;5080819;28;20059;-68
2022/05/17 09:01:24;;;;;;;21.60;8.13;;;20.10;99.90;;;;;;5080612;28;20103;-68
2022/05/17 09:04:27;;;;;;;12.10;7.30;;;20.20;99.90;;;;;;5075684;28;20017;-68
2022/05/17 09:06:59;;;;;;;12.80;6.82;;;20.30;99.90;;;;;;5072362;28;20028;-68
2022/05/17 09:09:31;;;;;;;13.32;6.72;;;20.30;99.90;;;;;;5076874;28;20394;-68
2022/05/17 09:12:09;;;;;;;17.20;7.25;;;20.20;99.90;;;;;;5079498;28;20377;-68
2022/05/17 09:14:40;;;;;;;28.73;8.85;;;20.30;99.90;;;;;;5062002;28;20052;-68
2022/05/17 09:17:15;;;;;;;58.60;12.30;;;20.40;99.90;;;;;;5078751;28;20036;-68
2022/05/17 09:19:41;;;;;;;20.25;7.72;;;20.40;99.90;;;;;;5074688;28;20025;-68
2022/05/17 09:22:07;;;;;;;16.00;7.13;;;20.40;99.90;;;;;;5077157;28;20016;-68
2022/05/17 09:24:43;;;;;;;13.75;6.35;;;20.50;99.90;;;;;;5077244;28;20102;-68
2022/05/17 09:27:12;;;;;;;14.50;7.57;;;20.60;99.90;;;;;;5074824;28;20066;-68
2022/05/17 09:29:45;;;;;;;17.70;6.88;;;20.60;99.90;;;;;;5066720;28;20032;-68
2022/05/17 09:32:22;;;;;;;15.57;6.90;;;20.70;99.90;;;;;;5064780;28;20019;-68
2022/05/17 09:34:59;;;;;;;13.18;6.95;;;20.70;99.90;;;;;;5081106;28;20060;-68
2022/05/17 09:37:36;;;;;;;12.20;6.25;;;20.70;99.90;;;;;;5085358;28;20153;-68
2022/05/17 09:40:07;;;;;;;17.33;6.57;;;20.80;99.90;;;;;;5078612;28;20565;-68
2022/05/17 09:42:36;;;;;;;15.15;6.85;;;20.80;99.90;;;;;;5081318;28;20094;-68
2022/05/17 09:45:05;;;;;;;13.65;6.05;;;20.80;99.90;;;;;;5086382;28;20032;-68
2022/05/17 09:47:34;;;;;;;11.90;5.57;;;20.70;99.90;;;;;;5079759;28;20438;-68
2022/05/17 09:53:14;;;;;;;15.98;5.78;;;20.70;99.90;;;;;;5084260;28;20081;-68
2022/05/17 09:55:43;;;;;;;10.13;5.10;;;20.80;99.90;;;;;;5076122;28;20028;-69
2022/05/17 09:58:10;;;;;;;13.52;5.32;;;20.90;99.90;;;;;;5077505;28;20097;-68
2022/05/17 10:00:49;;;;;;;12.75;5.32;;;21.10;99.90;;;;;;5085147;28;20056;-68
2022/05/17 10:03:15;;;;;;;9.32;5.00;;;21.20;99.90;;;;;;5068334;28;20396;-68
2022/05/17 10:05:41;;;;;;;10.32;5.40;;;21.40;99.90;;;;;;5053991;28;20021;-68
2022/05/17 10:08:12;;;;;;;9.35;5.30;;;21.50;99.90;;;;;;5091557;28;20473;-68
2022/05/17 10:10:43;;;;;;;14.43;5.20;;;21.60;99.90;;;;;;5083137;28;20111;-69
2022/05/17 10:13:19;;;;;;;13.25;5.80;;;21.80;99.90;;;;;;5080810;28;20286;-69
2022/05/17 10:15:48;;;;;;;12.52;6.60;;;21.90;99.90;;;;;;5100230;28;20029;-69
2022/05/17 10:18:26;;;;;;;10.20;5.75;;;22.10;99.90;;;;;;5079916;28;20042;-69
2022/05/17 10:20:57;;;;;;;10.70;6.00;;;22.20;99.90;;;;;;5084239;28;20464;-69
2022/05/17 10:23:41;;;;;;;11.57;6.18;;;22.40;99.90;;;;;;5080694;28;20018;-69
2022/05/17 10:26:11;;;;;;;16.02;7.63;;;22.70;99.90;;;;;;5073070;28;20020;-69
2022/05/17 10:28:56;;;;;;;15.45;6.50;;;23.00;99.90;;;;;;5071224;28;20024;-68
2022/05/17 10:31:34;;;;;;;10.18;5.88;;;23.40;99.90;;;;;;5068622;28;20442;-69
2022/05/17 10:34:25;;;;;;;10.95;6.18;;;23.60;99.90;;;;;;5079894;28;20024;-69
2022/05/17 10:36:56;;;;;;;8.18;3.60;;;23.90;99.90;;;;;;5076389;28;20498;-69
2022/05/17 10:39:43;;;;;;;8.10;4.13;;;24.30;99.90;;;;;;5073948;28;20044;-69
2022/05/17 10:42:09;;;;;;;9.45;4.00;;;24.40;99.90;;;;;;5065983;28;20031;-69
2022/05/17 10:44:45;;;;;;;10.65;3.42;;;24.30;99.90;;;;;;5083841;28;20028;-69
2022/05/17 10:47:29;;;;;;;8.93;4.60;;;24.30;99.90;;;;;;5068052;28;20098;-69
2022/05/17 10:50:13;;;;;;;10.65;3.20;;;24.20;99.20;;;;;;5070466;28;20028;-69
2022/05/17 10:52:51;;;;;;;7.35;3.47;;;24.20;99.70;;;;;;5085838;28;20024;-69
2022/05/17 10:55:28;;;;;;;5.47;3.25;;;24.30;99.90;;;;;;5065509;28;20497;-69
2022/05/17 10:58:03;;;;;;;7.18;4.07;;;24.40;98.60;;;;;;5075182;28;20044;-69
2022/05/17 11:00:38;;;;;;;6.85;3.60;;;24.40;99.40;;;;;;5087648;28;20020;-69
2022/05/17 11:03:24;;;;;;;9.38;3.55;;;24.70;98.80;;;;;;5086005;28;20020;-69
2022/05/17 11:06:26;;;;;;;7.80;3.13;;;25.00;99.40;;;;;;5073379;28;20051;-70
2022/05/17 11:08:55;;;;;;;6.38;3.42;;;25.20;99.30;;;;;;5068274;28;20155;-69
2022/05/17 11:11:46;;;;;;;7.55;2.72;;;25.50;98.20;;;;;;5088129;28;20078;-69
2022/05/17 11:14:30;;;;;;;7.55;2.85;;;25.70;98.70;;;;;;5067807;28;20506;-70
2022/05/17 11:17:22;;;;;;;7.28;3.30;;;25.60;95.90;;;;;;5082215;28;20115;-70
2022/05/17 11:20:04;;;;;;;9.05;2.55;;;25.70;97.80;;;;;;5088032;28;20017;-70
2022/05/17 11:22:48;;;;;;;7.68;2.90;;;25.90;96.60;;;;;;5073817;28;20028;-69
2022/05/17 11:25:22;;;;;;;5.90;2.85;;;26.00;97.30;;;;;;5078244;28;20047;-69
2022/05/17 11:27:57;;;;;;;8.00;3.05;;;26.10;95.40;;;;;;5073175;28;20095;-70
2022/05/17 11:30:30;;;;;;;6.38;3.05;;;26.30;96.50;;;;;;5065854;28;20025;-70
2022/05/17 11:33:24;;;;;;;5.40;2.50;;;26.30;95.80;;;;;;5065625;28;20035;-70
2022/05/17 11:35:54;;;;;;;4.80;3.03;;;26.40;97.10;;;;;;5065648;28;20025;-70
2022/05/17 11:38:32;;;;;;;9.05;3.78;;;26.50;95.30;;;;;;5067237;28;20496;-70
2022/05/17 11:41:44;;;;;;;4.88;3.20;;;26.50;95.20;;;;;;5067749;28;20024;-70
2022/05/17 11:44:10;;;;;;;5.18;2.88;;;26.50;95.80;;;;;;5073024;28;20036;-71
2022/05/17 11:46:54;;;;;;;7.18;3.15;;;26.80;96.80;;;;;;5063560;28;20064;-70
2022/05/17 11:49:31;;;;;;;6.50;3.38;;;26.80;94.70;;;;;;5067936;28;20100;-70
2022/05/17 11:51:57;;;;;;;3.25;2.63;;;26.60;95.10;;;;;;5069735;28;20032;-70
2022/05/17 11:54:47;;;;;;;4.75;2.70;;;26.70;95.40;;;;;;5070716;28;20037;-70
2022/05/17 11:57:32;;;;;;;6.32;3.35;;;26.50;95.30;;;;;;5066878;28;20400;-70
2022/05/17 12:00:04;;;;;;;9.13;2.85;;;26.80;94.70;;;;;;5074705;28;20118;-70
2022/05/17 12:02:51;;;;;;;7.22;2.58;;;26.60;94.60;;;;;;5062680;28;20469;-70
2022/05/17 12:05:48;;;;;;;6.45;2.58;;;26.90;95.80;;;;;;5064587;28;20025;-70
2022/05/17 12:08:35;;;;;;;7.53;3.13;;;27.00;95.30;;;;;;5066372;28;20047;-70
2022/05/17 12:11:00;;;;;;;8.02;2.83;;;27.30;94.10;;;;;;5066024;28;20044;-70
2022/05/17 12:13:28;;;;;;;6.57;2.40;;;26.70;93.20;;;;;;5087034;28;20040;-70
2022/05/17 12:15:53;;;;;;;4.43;1.98;;;26.60;94.10;;;;;;5075664;28;20029;-70
2022/05/17 12:18:31;;;;;;;3.47;2.03;;;26.60;94.90;;;;;;5078729;28;20039;-70
2022/05/17 12:21:29;;;;;;;5.75;2.72;;;26.60;94.70;;;;;;5085674;28;20020;-70
2022/05/17 12:24:17;;;;;;;4.20;2.25;;;26.70;95.70;;;;;;5075338;28;20035;-70
2022/05/17 12:26:56;;;;;;;4.60;2.30;;;26.80;95.00;;;;;;5083443;28;20028;-70
2022/05/17 12:32:10;;;;;;;6.00;2.33;;;26.70;93.90;;;;;;5071173;28;20113;-70
2022/05/17 12:34:41;;;;;;;7.25;2.78;;;27.10;94.20;;;;;;5065371;28;20040;-69
2022/05/17 12:37:12;;;;;;;6.72;2.55;;;27.30;93.40;;;;;;5082404;28;20032;-70
2022/05/17 12:45:14;;;;;;;4.13;1.88;;;27.50;94.30;;;;;;5084687;28;20047;-70
2022/05/17 12:47:55;;;;;;;3.63;1.60;;;27.70;93.10;;;;;;5072828;28;20031;-70
2022/05/17 12:50:40;;;;;;;4.00;1.50;;;27.70;91.10;;;;;;5086040;28;20046;-69
2022/05/17 12:53:25;;;;;;;2.28;1.95;;;27.80;91.00;;;;;;5070565;28;20109;-72
2022/05/17 12:56:09;;;;;;;5.03;1.70;;;27.90;90.50;;;;;;5085862;28;20028;-70
2022/05/17 12:58:57;;;;;;;5.72;2.15;;;27.90;90.70;;;;;;5080034;28;20035;-70
2022/05/17 13:01:25;;;;;;;3.30;1.95;;;28.00;90.60;;;;;;5072106;28;20099;-69
2022/05/17 13:03:54;;;;;;;3.63;1.80;;;27.90;90.70;;;;;;5088732;28;20027;-70
2022/05/17 13:06:20;;;;;;;3.75;2.08;;;27.60;90.40;;;;;;5059926;28;20052;-70
2022/05/17 13:08:47;;;;;;;4.57;2.45;;;27.50;91.60;;;;;;5072747;28;20063;-70
2022/05/17 13:11:26;;;;;;;5.35;2.25;;;27.50;90.60;;;;;;5071627;28;20543;-70
2022/05/17 13:14:05;;;;;;;5.63;2.05;;;27.50;90.90;;;;;;5076181;28;20063;-70
2022/05/17 13:16:34;;;;;;;3.38;2.00;;;27.30;91.00;;;;;;5074528;28;20032;-70